sensor_id;sensor_type;location;lat;lon;timestamp;P1;durP1;ratioP1;P2;durP2;ratioP2
69220;SDS011;56331;51.992;20.910;2023-04-03T00:00:39;0.70;;;0.50;;
69220;SDS011;56331;51.992;20.910;2023-04-03T00:03:07;0.80;;;0.57;;
69220;SDS011;56331;51.992;20.910;2023-04-03T00:05:34;1.05;;;0.60;;
69220;SDS011;56331;51.992;20.910;2023-04-03T00:08:01;0.60;;;0.50;;
69220;SDS011;56331;51.992;20.910;2023-04-03T00:10:29;0.70;;;0.57;;
69220;SDS011;56331;51.992;20.910;2023-04-03T00:12:56;1.05;;;0.60;;
69220;SDS011;56331;51.992;20.910;2023-04-03T00:15:22;0.98;;;0.57;;
69220;SDS011;56331;51.992;20.910;2023-04-03T00:17:49;1.15;;;0.60;;
69220;SDS011;56331;51.992;20.910;2023-04-03T00:20:17;0.95;;;0.40;;
69220;SDS011;56331;51.992;20.910;2023-04-03T00:22:44;1.00;;;0.60;;
69220;SDS011;56331;51.992;20.910;2023-04-03T00:25:11;0.50;;;0.50;;
69220;SDS011;56331;51.992;20.910;2023-04-03T00:27:37;0.50;;;0.40;;
69220;SDS011;56331;51.992;20.910;2023-04-03T00:30:05;0.70;;;0.60;;
69220;SDS011;56331;51.992;20.910;2023-04-03T00:32:33;0.90;;;0.50;;
69220;SDS011;56331;51.992;20.910;2023-04-03T00:34:59;0.72;;;0.50;;
69220;SDS011;56331;51.992;20.910;2023-04-03T00:37:28;1.07;;;0.50;;
69220;SDS011;56331;51.992;20.910;2023-04-03T00:39:54;0.75;;;0.50;;
69220;SDS011;56331;51.992;20.910;2023-04-03T00:42:21;0.50;;;0.50;;
69220;SDS011;56331;51.992;20.910;2023-04-03T00:47:17;0.60;;;0.45;;
69220;SDS011;56331;51.992;20.910;2023-04-03T00:49:44;0.75;;;0.50;;
69220;SDS011;56331;51.992;20.910;2023-04-03T00:52:12;0.60;;;0.50;;
69220;SDS011;56331;51.992;20.910;2023-04-03T00:54:42;0.50;;;0.50;;
69220;SDS011;56331;51.992;20.910;2023-04-03T00:57:10;0.80;;;0.60;;
69220;SDS011;56331;51.992;20.910;2023-04-03T00:59:39;1.30;;;0.60;;
69220;SDS011;56331;51.992;20.910;2023-04-03T01:02:13;0.62;;;0.50;;
69220;SDS011;56331;51.992;20.910;2023-04-03T01:04:42;0.55;;;0.40;;
69220;SDS011;56331;51.992;20.910;2023-04-03T01:09:53;0.30;;;0.30;;
69220;SDS011;56331;51.992;20.910;2023-04-03T01:12:27;1.05;;;0.60;;
69220;SDS011;56331;51.992;20.910;2023-04-03T01:15:03;0.60;;;0.60;;
69220;SDS011;56331;51.992;20.910;2023-04-03T01:25:26;0.75;;;0.50;;
69220;SDS011;56331;51.992;20.910;2023-04-03T01:27:53;0.65;;;0.40;;
69220;SDS011;56331;51.992;20.910;2023-04-03T01:30:22;0.47;;;0.40;;
69220;SDS011;56331;51.992;20.910;2023-04-03T01:35:16;0.53;;;0.40;;
69220;SDS011;56331;51.992;20.910;2023-04-03T01:37:45;0.80;;;0.40;;
69220;SDS011;56331;51.992;20.910;2023-04-03T01:40:12;0.45;;;0.37;;
69220;SDS011;56331;51.992;20.910;2023-04-03T01:42:38;0.40;;;0.40;;
69220;SDS011;56331;51.992;20.910;2023-04-03T01:45:05;0.60;;;0.50;;
69220;SDS011;56331;51.992;20.910;2023-04-03T01:47:32;0.85;;;0.40;;
69220;SDS011;56331;51.992;20.910;2023-04-03T01:49:59;0.80;;;0.50;;
69220;SDS011;56331;51.992;20.910;2023-04-03T01:52:27;0.60;;;0.40;;
69220;SDS011;56331;51.992;20.910;2023-04-03T01:54:53;0.80;;;0.50;;
69220;SDS011;56331;51.992;20.910;2023-04-03T01:57:20;1.17;;;0.55;;
69220;SDS011;56331;51.992;20.910;2023-04-03T01:59:46;0.60;;;0.30;;
69220;SDS011;56331;51.992;20.910;2023-04-03T02:02:12;0.70;;;0.40;;
69220;SDS011;56331;51.992;20.910;2023-04-03T02:04:40;0.62;;;0.40;;
69220;SDS011;56331;51.992;20.910;2023-04-03T02:07:07;0.50;;;0.30;;
69220;SDS011;56331;51.992;20.910;2023-04-03T02:09:34;0.47;;;0.40;;
69220;SDS011;56331;51.992;20.910;2023-04-03T02:12:00;0.30;;;0.30;;
69220;SDS011;56331;51.992;20.910;2023-04-03T02:14:27;0.50;;;0.40;;
69220;SDS011;56331;51.992;20.910;2023-04-03T02:16:53;0.50;;;0.40;;
69220;SDS011;56331;51.992;20.910;2023-04-03T02:19:20;0.50;;;0.40;;
69220;SDS011;56331;51.992;20.910;2023-04-03T02:21:46;0.70;;;0.40;;
69220;SDS011;56331;51.992;20.910;2023-04-03T02:24:13;0.50;;;0.35;;
69220;SDS011;56331;51.992;20.910;2023-04-03T02:26:41;0.65;;;0.30;;
69220;SDS011;56331;51.992;20.910;2023-04-03T02:29:07;0.60;;;0.40;;
69220;SDS011;56331;51.992;20.910;2023-04-03T02:31:34;1.07;;;0.37;;
69220;SDS011;56331;51.992;20.910;2023-04-03T02:34:01;0.45;;;0.30;;
69220;SDS011;56331;51.992;20.910;2023-04-03T02:36:27;0.78;;;0.35;;
69220;SDS011;56331;51.992;20.910;2023-04-03T02:38:54;0.28;;;0.28;;
69220;SDS011;56331;51.992;20.910;2023-04-03T02:41:20;0.70;;;0.40;;
69220;SDS011;56331;51.992;20.910;2023-04-03T02:43:47;0.57;;;0.37;;
69220;SDS011;56331;51.992;20.910;2023-04-03T02:46:13;0.62;;;0.40;;
69220;SDS011;56331;51.992;20.910;2023-04-03T02:48:41;0.37;;;0.23;;
69220;SDS011;56331;51.992;20.910;2023-04-03T02:51:08;0.70;;;0.55;;
69220;SDS011;56331;51.992;20.910;2023-04-03T02:53:34;0.23;;;0.20;;
69220;SDS011;56331;51.992;20.910;2023-04-03T02:56:03;0.42;;;0.37;;
69220;SDS011;56331;51.992;20.910;2023-04-03T02:58:30;0.50;;;0.30;;
69220;SDS011;56331;51.992;20.910;2023-04-03T03:00:56;0.88;;;0.40;;
69220;SDS011;56331;51.992;20.910;2023-04-03T03:03:23;0.75;;;0.40;;
69220;SDS011;56331;51.992;20.910;2023-04-03T03:05:50;0.40;;;0.33;;
69220;SDS011;56331;51.992;20.910;2023-04-03T03:08:18;0.68;;;0.40;;
69220;SDS011;56331;51.992;20.910;2023-04-03T03:10:46;0.53;;;0.30;;
69220;SDS011;56331;51.992;20.910;2023-04-03T03:13:14;0.30;;;0.30;;
69220;SDS011;56331;51.992;20.910;2023-04-03T03:15:41;0.42;;;0.40;;
69220;SDS011;56331;51.992;20.910;2023-04-03T03:18:08;0.30;;;0.30;;
69220;SDS011;56331;51.992;20.910;2023-04-03T03:20:34;0.60;;;0.40;;
69220;SDS011;56331;51.992;20.910;2023-04-03T03:23:01;0.53;;;0.40;;
69220;SDS011;56331;51.992;20.910;2023-04-03T03:25:27;0.20;;;0.20;;
69220;SDS011;56331;51.992;20.910;2023-04-03T03:27:54;0.40;;;0.30;;
69220;SDS011;56331;51.992;20.910;2023-04-03T03:30:23;0.35;;;0.20;;
69220;SDS011;56331;51.992;20.910;2023-04-03T03:32:50;0.40;;;0.40;;
69220;SDS011;56331;51.992;20.910;2023-04-03T03:35:17;0.47;;;0.30;;
69220;SDS011;56331;51.992;20.910;2023-04-03T03:40:13;0.80;;;0.47;;
69220;SDS011;56331;51.992;20.910;2023-04-03T03:42:40;0.93;;;0.47;;
69220;SDS011;56331;51.992;20.910;2023-04-03T03:45:07;0.20;;;0.20;;
69220;SDS011;56331;51.992;20.910;2023-04-03T03:47:35;0.50;;;0.30;;
69220;SDS011;56331;51.992;20.910;2023-04-03T03:50:01;0.40;;;0.30;;
69220;SDS011;56331;51.992;20.910;2023-04-03T03:52:28;0.37;;;0.30;;
69220;SDS011;56331;51.992;20.910;2023-04-03T03:54:58;0.50;;;0.37;;
69220;SDS011;56331;51.992;20.910;2023-04-03T03:57:25;0.70;;;0.40;;
69220;SDS011;56331;51.992;20.910;2023-04-03T03:59:53;0.40;;;0.30;;
69220;SDS011;56331;51.992;20.910;2023-04-03T04:02:20;0.37;;;0.30;;
69220;SDS011;56331;51.992;20.910;2023-04-03T04:04:48;0.47;;;0.30;;
69220;SDS011;56331;51.992;20.910;2023-04-03T04:07:14;0.90;;;0.37;;
69220;SDS011;56331;51.992;20.910;2023-04-03T04:09:41;0.37;;;0.20;;
69220;SDS011;56331;51.992;20.910;2023-04-03T04:12:09;0.20;;;0.20;;
69220;SDS011;56331;51.992;20.910;2023-04-03T04:14:36;0.33;;;0.28;;
69220;SDS011;56331;51.992;20.910;2023-04-03T04:17:04;0.72;;;0.30;;
69220;SDS011;56331;51.992;20.910;2023-04-03T04:19:36;0.30;;;0.20;;
69220;SDS011;56331;51.992;20.910;2023-04-03T04:22:03;0.30;;;0.20;;
69220;SDS011;56331;51.992;20.910;2023-04-03T04:24:30;0.68;;;0.40;;
69220;SDS011;56331;51.992;20.910;2023-04-03T04:26:57;0.75;;;0.30;;
69220;SDS011;56331;51.992;20.910;2023-04-03T04:29:24;0.25;;;0.23;;
69220;SDS011;56331;51.992;20.910;2023-04-03T04:31:51;0.30;;;0.30;;
69220;SDS011;56331;51.992;20.910;2023-04-03T04:34:17;0.60;;;0.40;;
69220;SDS011;56331;51.992;20.910;2023-04-03T04:36:43;0.50;;;0.20;;
69220;SDS011;56331;51.992;20.910;2023-04-03T04:39:10;0.35;;;0.30;;
69220;SDS011;56331;51.992;20.910;2023-04-03T04:41:37;0.80;;;0.33;;
69220;SDS011;56331;51.992;20.910;2023-04-03T04:44:03;0.50;;;0.40;;
69220;SDS011;56331;51.992;20.910;2023-04-03T04:46:30;0.90;;;0.42;;
69220;SDS011;56331;51.992;20.910;2023-04-03T04:48:57;0.70;;;0.40;;
69220;SDS011;56331;51.992;20.910;2023-04-03T04:51:24;0.47;;;0.35;;
69220;SDS011;56331;51.992;20.910;2023-04-03T04:53:51;1.57;;;0.40;;
69220;SDS011;56331;51.992;20.910;2023-04-03T04:56:18;0.75;;;0.42;;
69220;SDS011;56331;51.992;20.910;2023-04-03T04:58:45;0.42;;;0.40;;
69220;SDS011;56331;51.992;20.910;2023-04-03T05:01:11;0.50;;;0.30;;
69220;SDS011;56331;51.992;20.910;2023-04-03T05:03:37;0.72;;;0.37;;
69220;SDS011;56331;51.992;20.910;2023-04-03T05:06:04;0.50;;;0.30;;
69220;SDS011;56331;51.992;20.910;2023-04-03T05:08:31;0.47;;;0.30;;
69220;SDS011;56331;51.992;20.910;2023-04-03T05:11:01;0.68;;;0.42;;
69220;SDS011;56331;51.992;20.910;2023-04-03T05:13:27;0.30;;;0.25;;
69220;SDS011;56331;51.992;20.910;2023-04-03T05:15:55;0.23;;;0.20;;
69220;SDS011;56331;51.992;20.910;2023-04-03T05:18:21;2.05;;;0.35;;
69220;SDS011;56331;51.992;20.910;2023-04-03T05:20:48;0.57;;;0.30;;
69220;SDS011;56331;51.992;20.910;2023-04-03T05:23:16;0.65;;;0.40;;
69220;SDS011;56331;51.992;20.910;2023-04-03T05:25:43;1.35;;;0.40;;
69220;SDS011;56331;51.992;20.910;2023-04-03T05:28:12;0.50;;;0.37;;
69220;SDS011;56331;51.992;20.910;2023-04-03T05:30:39;0.60;;;0.30;;
69220;SDS011;56331;51.992;20.910;2023-04-03T05:33:05;1.00;;;0.40;;
69220;SDS011;56331;51.992;20.910;2023-04-03T05:35:31;0.45;;;0.30;;
69220;SDS011;56331;51.992;20.910;2023-04-03T05:37:58;0.68;;;0.40;;
69220;SDS011;56331;51.992;20.910;2023-04-03T05:40:24;0.42;;;0.40;;
69220;SDS011;56331;51.992;20.910;2023-04-03T05:42:51;2.20;;;0.40;;
69220;SDS011;56331;51.992;20.910;2023-04-03T05:45:19;0.57;;;0.37;;
69220;SDS011;56331;51.992;20.910;2023-04-03T05:47:46;0.50;;;0.35;;
69220;SDS011;56331;51.992;20.910;2023-04-03T05:50:12;1.47;;;0.75;;
69220;SDS011;56331;51.992;20.910;2023-04-03T05:52:40;0.80;;;0.45;;
69220;SDS011;56331;51.992;20.910;2023-04-03T05:55:12;1.17;;;0.40;;
69220;SDS011;56331;51.992;20.910;2023-04-03T05:57:42;1.00;;;0.62;;
69220;SDS011;56331;51.992;20.910;2023-04-03T06:00:12;2.08;;;0.40;;
69220;SDS011;56331;51.992;20.910;2023-04-03T06:02:47;1.15;;;0.30;;
69220;SDS011;56331;51.992;20.910;2023-04-03T06:05:13;0.53;;;0.40;;
69220;SDS011;56331;51.992;20.910;2023-04-03T06:07:40;0.40;;;0.30;;
69220;SDS011;56331;51.992;20.910;2023-04-03T06:10:07;0.45;;;0.40;;
69220;SDS011;56331;51.992;20.910;2023-04-03T06:15:06;0.70;;;0.30;;
69220;SDS011;56331;51.992;20.910;2023-04-03T06:17:34;1.37;;;0.37;;
69220;SDS011;56331;51.992;20.910;2023-04-03T06:20:00;2.35;;;0.50;;
69220;SDS011;56331;51.992;20.910;2023-04-03T06:22:27;0.47;;;0.30;;
69220;SDS011;56331;51.992;20.910;2023-04-03T06:24:55;0.65;;;0.42;;
69220;SDS011;56331;51.992;20.910;2023-04-03T06:27:22;1.10;;;0.40;;
69220;SDS011;56331;51.992;20.910;2023-04-03T06:29:49;1.10;;;0.30;;
69220;SDS011;56331;51.992;20.910;2023-04-03T06:32:15;1.77;;;0.42;;
69220;SDS011;56331;51.992;20.910;2023-04-03T06:34:42;0.78;;;0.30;;
69220;SDS011;56331;51.992;20.910;2023-04-03T06:37:19;1.98;;;0.40;;
69220;SDS011;56331;51.992;20.910;2023-04-03T06:39:47;0.68;;;0.47;;
69220;SDS011;56331;51.992;20.910;2023-04-03T06:42:14;1.00;;;0.50;;
69220;SDS011;56331;51.992;20.910;2023-04-03T06:44:40;0.37;;;0.20;;
69220;SDS011;56331;51.992;20.910;2023-04-03T06:47:09;0.50;;;0.30;;
69220;SDS011;56331;51.992;20.910;2023-04-03T06:49:39;1.55;;;0.45;;
69220;SDS011;56331;51.992;20.910;2023-04-03T06:52:08;0.85;;;0.30;;
69220;SDS011;56331;51.992;20.910;2023-04-03T06:54:36;0.98;;;0.60;;
69220;SDS011;56331;51.992;20.910;2023-04-03T06:57:02;0.55;;;0.30;;
69220;SDS011;56331;51.992;20.910;2023-04-03T06:59:29;0.90;;;0.40;;
69220;SDS011;56331;51.992;20.910;2023-04-03T07:01:55;0.62;;;0.40;;
69220;SDS011;56331;51.992;20.910;2023-04-03T07:04:22;0.50;;;0.30;;
69220;SDS011;56331;51.992;20.910;2023-04-03T07:06:49;17.52;;;1.80;;
69220;SDS011;56331;51.992;20.910;2023-04-03T07:09:16;30.82;;;4.08;;
69220;SDS011;56331;51.992;20.910;2023-04-03T07:11:43;36.60;;;4.35;;
69220;SDS011;56331;51.992;20.910;2023-04-03T07:14:09;27.60;;;3.60;;
69220;SDS011;56331;51.992;20.910;2023-04-03T07:16:35;25.60;;;3.10;;
69220;SDS011;56331;51.992;20.910;2023-04-03T07:19:02;17.00;;;2.87;;
69220;SDS011;56331;51.992;20.910;2023-04-03T07:21:29;10.60;;;2.50;;
69220;SDS011;56331;51.992;20.910;2023-04-03T07:23:56;18.95;;;3.17;;
69220;SDS011;56331;51.992;20.910;2023-04-03T07:26:22;14.58;;;2.20;;
69220;SDS011;56331;51.992;20.910;2023-04-03T07:28:49;11.57;;;2.30;;
69220;SDS011;56331;51.992;20.910;2023-04-03T07:31:15;16.87;;;2.50;;
69220;SDS011;56331;51.992;20.910;2023-04-03T07:33:43;13.32;;;2.22;;
69220;SDS011;56331;51.992;20.910;2023-04-03T07:36:11;12.45;;;2.50;;
69220;SDS011;56331;51.992;20.910;2023-04-03T07:38:41;12.30;;;1.92;;
69220;SDS011;56331;51.992;20.910;2023-04-03T07:41:10;6.87;;;1.77;;
69220;SDS011;56331;51.992;20.910;2023-04-03T07:43:41;9.33;;;1.82;;
69220;SDS011;56331;51.992;20.910;2023-04-03T07:46:07;6.83;;;1.55;;
69220;SDS011;56331;51.992;20.910;2023-04-03T07:48:34;8.98;;;1.65;;
69220;SDS011;56331;51.992;20.910;2023-04-03T07:51:01;9.63;;;1.30;;
69220;SDS011;56331;51.992;20.910;2023-04-03T07:53:28;9.75;;;1.37;;
69220;SDS011;56331;51.992;20.910;2023-04-03T07:55:56;9.58;;;1.60;;
69220;SDS011;56331;51.992;20.910;2023-04-03T07:58:23;4.47;;;1.40;;
69220;SDS011;56331;51.992;20.910;2023-04-03T08:00:51;7.20;;;1.92;;
69220;SDS011;56331;51.992;20.910;2023-04-03T08:03:18;6.58;;;1.35;;
69220;SDS011;56331;51.992;20.910;2023-04-03T08:05:45;8.85;;;1.50;;
69220;SDS011;56331;51.992;20.910;2023-04-03T08:08:15;8.10;;;1.40;;
69220;SDS011;56331;51.992;20.910;2023-04-03T08:10:43;6.78;;;1.47;;
69220;SDS011;56331;51.992;20.910;2023-04-03T08:13:16;5.75;;;1.37;;
69220;SDS011;56331;51.992;20.910;2023-04-03T08:15:45;6.33;;;1.40;;
69220;SDS011;56331;51.992;20.910;2023-04-03T08:18:13;2.40;;;0.98;;
69220;SDS011;56331;51.992;20.910;2023-04-03T08:20:40;6.28;;;1.55;;
69220;SDS011;56331;51.992;20.910;2023-04-03T08:23:16;5.70;;;1.02;;
69220;SDS011;56331;51.992;20.910;2023-04-03T08:25:43;2.52;;;1.00;;
69220;SDS011;56331;51.992;20.910;2023-04-03T08:28:10;4.42;;;1.10;;
69220;SDS011;56331;51.992;20.910;2023-04-03T08:30:45;3.02;;;1.07;;
69220;SDS011;56331;51.992;20.910;2023-04-03T08:33:09;2.72;;;0.70;;
69220;SDS011;56331;51.992;20.910;2023-04-03T08:35:40;2.85;;;1.10;;
69220;SDS011;56331;51.992;20.910;2023-04-03T08:38:07;2.02;;;0.68;;
69220;SDS011;56331;51.992;20.910;2023-04-03T08:40:34;2.12;;;0.80;;
69220;SDS011;56331;51.992;20.910;2023-04-03T08:45:53;7.30;;;1.17;;
69220;SDS011;56331;51.992;20.910;2023-04-03T08:48:23;5.53;;;1.60;;
69220;SDS011;56331;51.992;20.910;2023-04-03T08:51:04;11.28;;;2.17;;
69220;SDS011;56331;51.992;20.910;2023-04-03T08:53:35;13.95;;;1.95;;
69220;SDS011;56331;51.992;20.910;2023-04-03T08:56:10;5.62;;;1.70;;
69220;SDS011;56331;51.992;20.910;2023-04-03T08:58:58;6.75;;;1.90;;
69220;SDS011;56331;51.992;20.910;2023-04-03T09:01:24;6.20;;;1.92;;
69220;SDS011;56331;51.992;20.910;2023-04-03T09:03:53;10.23;;;2.10;;
69220;SDS011;56331;51.992;20.910;2023-04-03T09:06:21;7.60;;;2.10;;
69220;SDS011;56331;51.992;20.910;2023-04-03T09:08:59;7.28;;;1.90;;
69220;SDS011;56331;51.992;20.910;2023-04-03T09:17:15;9.23;;;2.15;;
69220;SDS011;56331;51.992;20.910;2023-04-03T09:22:20;4.90;;;1.50;;
69220;SDS011;56331;51.992;20.910;2023-04-03T09:24:55;8.13;;;1.80;;
69220;SDS011;56331;51.992;20.910;2023-04-03T09:27:27;7.03;;;2.33;;
69220;SDS011;56331;51.992;20.910;2023-04-03T09:29:55;6.55;;;1.98;;
69220;SDS011;56331;51.992;20.910;2023-04-03T09:32:27;7.12;;;1.50;;
69220;SDS011;56331;51.992;20.910;2023-04-03T09:34:57;5.78;;;1.75;;
69220;SDS011;56331;51.992;20.910;2023-04-03T09:43:04;8.70;;;1.42;;
69220;SDS011;56331;51.992;20.910;2023-04-03T09:45:44;8.18;;;1.60;;
69220;SDS011;56331;51.992;20.910;2023-04-03T09:53:34;5.08;;;1.55;;
69220;SDS011;56331;51.992;20.910;2023-04-03T09:59:07;3.95;;;1.30;;
69220;SDS011;56331;51.992;20.910;2023-04-03T10:06:48;5.58;;;1.35;;
69220;SDS011;56331;51.992;20.910;2023-04-03T10:09:22;4.55;;;1.07;;
69220;SDS011;56331;51.992;20.910;2023-04-03T10:12:02;4.35;;;1.30;;
69220;SDS011;56331;51.992;20.910;2023-04-03T10:14:35;3.12;;;1.15;;
69220;SDS011;56331;51.992;20.910;2023-04-03T10:17:13;6.58;;;1.32;;
69220;SDS011;56331;51.992;20.910;2023-04-03T10:27:29;3.77;;;1.20;;
69220;SDS011;56331;51.992;20.910;2023-04-03T10:30:19;6.53;;;1.35;;
69220;SDS011;56331;51.992;20.910;2023-04-03T10:35:37;3.50;;;1.00;;
69220;SDS011;56331;51.992;20.910;2023-04-03T10:41:05;12.43;;;2.25;;
69220;SDS011;56331;51.992;20.910;2023-04-03T10:43:53;3.40;;;1.27;;
69220;SDS011;56331;51.992;20.910;2023-04-03T10:51:48;3.17;;;1.00;;
69220;SDS011;56331;51.992;20.910;2023-04-03T10:54:25;3.85;;;1.00;;
69220;SDS011;56331;51.992;20.910;2023-04-03T10:56:55;5.65;;;1.20;;
69220;SDS011;56331;51.992;20.910;2023-04-03T11:02:28;8.73;;;1.27;;
69220;SDS011;56331;51.992;20.910;2023-04-03T11:05:01;3.77;;;0.85;;
69220;SDS011;56331;51.992;20.910;2023-04-03T11:07:37;5.40;;;1.10;;
69220;SDS011;56331;51.992;20.910;2023-04-03T11:10:12;3.67;;;1.15;;
69220;SDS011;56331;51.992;20.910;2023-04-03T11:15:22;2.22;;;0.75;;
69220;SDS011;56331;51.992;20.910;2023-04-03T11:17:54;2.50;;;0.62;;
69220;SDS011;56331;51.992;20.910;2023-04-03T11:20:28;4.60;;;0.70;;
69220;SDS011;56331;51.992;20.910;2023-04-03T11:23:01;3.85;;;0.90;;
69220;SDS011;56331;51.992;20.910;2023-04-03T11:25:34;2.95;;;0.80;;
69220;SDS011;56331;51.992;20.910;2023-04-03T11:28:06;3.27;;;1.02;;
69220;SDS011;56331;51.992;20.910;2023-04-03T11:35:53;2.27;;;0.60;;
69220;SDS011;56331;51.992;20.910;2023-04-03T11:38:23;3.33;;;0.60;;
69220;SDS011;56331;51.992;20.910;2023-04-03T11:40:56;1.15;;;0.60;;
69220;SDS011;56331;51.992;20.910;2023-04-03T11:43:28;1.02;;;0.60;;
69220;SDS011;56331;51.992;20.910;2023-04-03T11:46:04;4.30;;;0.60;;
69220;SDS011;56331;51.992;20.910;2023-04-03T11:54:34;1.35;;;0.53;;
69220;SDS011;56331;51.992;20.910;2023-04-03T11:56:28;2.22;;;0.40;;
69220;SDS011;56331;51.992;20.910;2023-04-03T12:01:51;1.15;;;0.70;;
69220;SDS011;56331;51.992;20.910;2023-04-03T12:04:21;0.83;;;0.40;;
69220;SDS011;56331;51.992;20.910;2023-04-03T12:06:51;3.17;;;0.72;;
69220;SDS011;56331;51.992;20.910;2023-04-03T12:11:54;3.27;;;0.82;;
69220;SDS011;56331;51.992;20.910;2023-04-03T12:14:23;3.75;;;0.68;;
69220;SDS011;56331;51.992;20.910;2023-04-03T12:16:57;3.85;;;0.40;;
69220;SDS011;56331;51.992;20.910;2023-04-03T12:19:36;1.92;;;0.60;;
69220;SDS011;56331;51.992;20.910;2023-04-03T12:22:06;2.20;;;0.62;;
69220;SDS011;56331;51.992;20.910;2023-04-03T12:24:44;1.10;;;0.50;;
69220;SDS011;56331;51.992;20.910;2023-04-03T12:46:33;1.73;;;0.60;;
69220;SDS011;56331;51.992;20.910;2023-04-03T12:49:05;0.90;;;0.30;;
69220;SDS011;56331;51.992;20.910;2023-04-03T12:51:51;0.82;;;0.40;;
69220;SDS011;56331;51.992;20.910;2023-04-03T12:54:31;2.87;;;0.50;;
69220;SDS011;56331;51.992;20.910;2023-04-03T12:57:10;2.95;;;0.62;;
69220;SDS011;56331;51.992;20.910;2023-04-03T12:59:48;1.35;;;0.50;;
69220;SDS011;56331;51.992;20.910;2023-04-03T13:02:24;1.00;;;0.57;;
69220;SDS011;56331;51.992;20.910;2023-04-03T13:04:54;0.88;;;0.37;;
69220;SDS011;56331;51.992;20.910;2023-04-03T13:07:25;1.05;;;0.60;;
69220;SDS011;56331;51.992;20.910;2023-04-03T13:10:03;0.82;;;0.42;;
69220;SDS011;56331;51.992;20.910;2023-04-03T13:12:31;0.95;;;0.35;;
69220;SDS011;56331;51.992;20.910;2023-04-03T13:14:59;1.27;;;0.50;;
69220;SDS011;56331;51.992;20.910;2023-04-03T13:17:30;0.70;;;0.40;;
69220;SDS011;56331;51.992;20.910;2023-04-03T13:20:11;3.33;;;0.33;;
69220;SDS011;56331;51.992;20.910;2023-04-03T13:23:01;2.02;;;0.40;;
69220;SDS011;56331;51.992;20.910;2023-04-03T13:25:37;0.65;;;0.33;;
69220;SDS011;56331;51.992;20.910;2023-04-03T13:28:11;1.15;;;0.40;;
69220;SDS011;56331;51.992;20.910;2023-04-03T13:31:06;2.25;;;0.55;;
69220;SDS011;56331;51.992;20.910;2023-04-03T13:33:23;1.00;;;0.35;;
69220;SDS011;56331;51.992;20.910;2023-04-03T13:35:55;0.53;;;0.25;;
69220;SDS011;56331;51.992;20.910;2023-04-03T13:39:20;1.35;;;0.40;;
69220;SDS011;56331;51.992;20.910;2023-04-03T13:41:34;0.95;;;0.30;;
69220;SDS011;56331;51.992;20.910;2023-04-03T13:46:55;1.15;;;0.40;;
69220;SDS011;56331;51.992;20.910;2023-04-03T13:49:21;1.40;;;0.42;;
69220;SDS011;56331;51.992;20.910;2023-04-03T13:51:54;1.00;;;0.60;;
69220;SDS011;56331;51.992;20.910;2023-04-03T13:54:28;0.57;;;0.30;;
69220;SDS011;56331;51.992;20.910;2023-04-03T13:57:11;1.67;;;0.30;;
69220;SDS011;56331;51.992;20.910;2023-04-03T13:59:39;2.10;;;0.40;;
69220;SDS011;56331;51.992;20.910;2023-04-03T14:04:55;2.00;;;0.33;;
69220;SDS011;56331;51.992;20.910;2023-04-03T14:07:26;1.77;;;0.55;;
69220;SDS011;56331;51.992;20.910;2023-04-03T14:09:54;2.42;;;0.40;;
69220;SDS011;56331;51.992;20.910;2023-04-03T14:12:31;0.78;;;0.40;;
69220;SDS011;56331;51.992;20.910;2023-04-03T14:15:01;0.30;;;0.20;;
69220;SDS011;56331;51.992;20.910;2023-04-03T14:17:28;2.25;;;0.30;;
69220;SDS011;56331;51.992;20.910;2023-04-03T14:19:57;0.40;;;0.30;;
69220;SDS011;56331;51.992;20.910;2023-04-03T14:22:28;1.45;;;0.30;;
69220;SDS011;56331;51.992;20.910;2023-04-03T14:24:56;0.72;;;0.35;;
69220;SDS011;56331;51.992;20.910;2023-04-03T14:27:26;0.33;;;0.20;;
69220;SDS011;56331;51.992;20.910;2023-04-03T14:29:55;0.50;;;0.30;;
69220;SDS011;56331;51.992;20.910;2023-04-03T14:32:23;0.70;;;0.35;;
69220;SDS011;56331;51.992;20.910;2023-04-03T14:34:50;2.58;;;0.30;;
69220;SDS011;56331;51.992;20.910;2023-04-03T14:37:20;0.53;;;0.35;;
69220;SDS011;56331;51.992;20.910;2023-04-03T14:39:49;0.30;;;0.30;;
69220;SDS011;56331;51.992;20.910;2023-04-03T14:42:18;0.45;;;0.25;;
69220;SDS011;56331;51.992;20.910;2023-04-03T14:44:46;0.72;;;0.28;;
69220;SDS011;56331;51.992;20.910;2023-04-03T14:47:14;1.20;;;0.50;;
69220;SDS011;56331;51.992;20.910;2023-04-03T14:49:42;2.37;;;0.42;;
69220;SDS011;56331;51.992;20.910;2023-04-03T14:52:20;0.60;;;0.40;;
69220;SDS011;56331;51.992;20.910;2023-04-03T14:54:49;1.45;;;0.40;;
69220;SDS011;56331;51.992;20.910;2023-04-03T14:57:17;0.85;;;0.30;;
69220;SDS011;56331;51.992;20.910;2023-04-03T14:59:44;0.90;;;0.50;;
69220;SDS011;56331;51.992;20.910;2023-04-03T15:02:27;0.80;;;0.40;;
69220;SDS011;56331;51.992;20.910;2023-04-03T15:04:55;0.70;;;0.40;;
69220;SDS011;56331;51.992;20.910;2023-04-03T15:07:23;0.28;;;0.20;;
69220;SDS011;56331;51.992;20.910;2023-04-03T15:09:50;0.78;;;0.30;;
69220;SDS011;56331;51.992;20.910;2023-04-03T15:12:17;0.75;;;0.30;;
69220;SDS011;56331;51.992;20.910;2023-04-03T15:14:44;0.90;;;0.50;;
69220;SDS011;56331;51.992;20.910;2023-04-03T15:17:13;0.40;;;0.30;;
69220;SDS011;56331;51.992;20.910;2023-04-03T15:19:43;0.40;;;0.30;;
69220;SDS011;56331;51.992;20.910;2023-04-03T15:22:12;0.55;;;0.30;;
69220;SDS011;56331;51.992;20.910;2023-04-03T15:27:06;0.80;;;0.30;;
69220;SDS011;56331;51.992;20.910;2023-04-03T15:29:32;1.17;;;0.45;;
69220;SDS011;56331;51.992;20.910;2023-04-03T15:32:02;0.70;;;0.30;;
69220;SDS011;56331;51.992;20.910;2023-04-03T15:34:36;0.70;;;0.30;;
69220;SDS011;56331;51.992;20.910;2023-04-03T15:36:59;0.53;;;0.30;;
69220;SDS011;56331;51.992;20.910;2023-04-03T15:39:27;1.20;;;0.30;;
69220;SDS011;56331;51.992;20.910;2023-04-03T15:41:54;0.45;;;0.33;;
69220;SDS011;56331;51.992;20.910;2023-04-03T15:44:21;1.30;;;0.30;;
69220;SDS011;56331;51.992;20.910;2023-04-03T15:46:48;0.40;;;0.30;;
69220;SDS011;56331;51.992;20.910;2023-04-03T15:49:19;0.55;;;0.30;;
69220;SDS011;56331;51.992;20.910;2023-04-03T15:51:46;0.37;;;0.10;;
69220;SDS011;56331;51.992;20.910;2023-04-03T15:54:15;1.25;;;0.25;;
69220;SDS011;56331;51.992;20.910;2023-04-03T15:56:42;0.82;;;0.40;;
69220;SDS011;56331;51.992;20.910;2023-04-03T15:59:08;0.57;;;0.35;;
69220;SDS011;56331;51.992;20.910;2023-04-03T16:01:34;1.52;;;0.33;;
69220;SDS011;56331;51.992;20.910;2023-04-03T16:04:02;1.27;;;0.30;;
69220;SDS011;56331;51.992;20.910;2023-04-03T16:06:30;0.82;;;0.30;;
69220;SDS011;56331;51.992;20.910;2023-04-03T16:08:57;1.25;;;0.40;;
69220;SDS011;56331;51.992;20.910;2023-04-03T16:11:24;1.00;;;0.60;;
69220;SDS011;56331;51.992;20.910;2023-04-03T16:13:52;0.80;;;0.30;;
69220;SDS011;56331;51.992;20.910;2023-04-03T16:16:22;3.52;;;0.40;;
69220;SDS011;56331;51.992;20.910;2023-04-03T16:18:50;2.33;;;0.62;;
69220;SDS011;56331;51.992;20.910;2023-04-03T16:21:17;2.20;;;0.50;;
69220;SDS011;56331;51.992;20.910;2023-04-03T16:23:44;0.88;;;0.40;;
69220;SDS011;56331;51.992;20.910;2023-04-03T16:26:11;2.17;;;0.40;;
69220;SDS011;56331;51.992;20.910;2023-04-03T16:28:41;0.95;;;0.37;;
69220;SDS011;56331;51.992;20.910;2023-04-03T16:31:07;1.60;;;0.30;;
69220;SDS011;56331;51.992;20.910;2023-04-03T16:36:12;0.78;;;0.40;;
69220;SDS011;56331;51.992;20.910;2023-04-03T16:38:38;1.62;;;0.40;;
69220;SDS011;56331;51.992;20.910;2023-04-03T16:41:05;0.60;;;0.35;;
69220;SDS011;56331;51.992;20.910;2023-04-03T16:43:32;0.62;;;0.30;;
69220;SDS011;56331;51.992;20.910;2023-04-03T16:46:01;0.40;;;0.30;;